createdAt,value
2019-05-21T00:01:03.221Z,99.28
2019-05-21T00:03:31.615Z,99.25
2019-05-21T00:06:00.307Z,99.28
2019-05-21T00:08:28.211Z,99.15
2019-05-21T00:10:56.136Z,99.05
2019-05-21T00:13:24.726Z,99.03
2019-05-21T00:15:52.661Z,99.08
2019-05-21T00:18:21.201Z,98.96
2019-05-21T00:20:49.825Z,99.09
2019-05-21T00:23:18.605Z,99.16
2019-05-21T00:25:47.255Z,99.09
2019-05-21T00:28:40.305Z,99.07
2019-05-21T00:31:44.849Z,99.07
2019-05-21T00:34:49.351Z,99.08
2019-05-21T00:37:53.525Z,99.16
2019-05-21T00:40:57.043Z,99.21
2019-05-21T00:43:34.928Z,99.37
2019-05-21T00:46:02.459Z,99.50
2019-05-21T00:48:30.086Z,99.44
2019-05-21T00:50:57.939Z,99.50
2019-05-21T00:53:26.766Z,99.61
2019-05-21T00:55:55.030Z,99.54
2019-05-21T00:58:23.275Z,99.54
2019-05-21T01:00:51.543Z,99.54
2019-05-21T01:03:20.042Z,99.65
2019-05-21T01:05:48.296Z,99.68
2019-05-21T01:08:16.914Z,99.50
2019-05-21T01:10:45.466Z,99.42
2019-05-21T01:13:13.782Z,99.48
2019-05-21T01:15:42.379Z,99.38
2019-05-21T01:18:11.853Z,99.33
2019-05-21T01:20:40.515Z,99.25
2019-05-21T01:23:09.060Z,99.09
2019-05-21T01:25:36.947Z,99.03
2019-05-21T01:28:05.221Z,99.00
2019-05-21T01:30:33.434Z,99.17
2019-05-21T01:33:01.385Z,98.84
2019-05-21T01:35:29.682Z,98.93
2019-05-21T01:37:57.946Z,98.81
2019-05-21T01:40:26.450Z,98.68
2019-05-21T01:42:54.761Z,98.70
2019-05-21T01:45:23.086Z,98.48
2019-05-21T01:47:51.379Z,98.44
2019-05-21T01:50:18.833Z,98.27
2019-05-21T01:52:47.081Z,98.29
2019-05-21T01:55:16.016Z,98.33
2019-05-21T01:57:44.289Z,98.28
2019-05-21T02:00:12.981Z,98.45
2019-05-21T02:02:41.480Z,98.56
2019-05-21T02:05:09.511Z,98.56
2019-05-21T02:07:37.751Z,98.62
2019-05-21T02:10:05.757Z,98.54
2019-05-21T02:12:34.509Z,98.67
2019-05-21T02:15:02.801Z,98.67
2019-05-21T02:17:31.007Z,98.34
2019-05-21T02:19:59.315Z,98.32
2019-05-21T02:22:27.585Z,98.33
2019-05-21T02:24:55.474Z,98.20
2019-05-21T02:27:23.369Z,98.01
2019-05-21T02:29:51.505Z,97.79
2019-05-21T02:32:20.144Z,97.99
2019-05-21T02:34:48.681Z,98.12
2019-05-21T02:37:18.754Z,98.37
2019-05-21T02:39:47.444Z,98.23
2019-05-21T02:42:16.063Z,98.46
2019-05-21T02:44:44.030Z,98.22
2019-05-21T02:47:12.398Z,98.28
2019-05-21T02:49:41.896Z,97.94
2019-05-21T02:52:10.580Z,97.99
2019-05-21T02:54:41.687Z,97.96
2019-05-21T02:57:09.002Z,98.10
2019-05-21T02:59:38.368Z,98.33
2019-05-21T03:02:13.051Z,98.31
2019-05-21T03:04:40.591Z,98.15
2019-05-21T03:07:18.155Z,98.19
2019-05-21T03:09:47.854Z,98.39
2019-05-21T03:12:16.675Z,98.26
2019-05-21T03:14:44.960Z,98.03
2019-05-21T03:17:13.280Z,98.09
2019-05-21T03:19:41.813Z,98.13
2019-05-21T03:22:09.795Z,98.00
2019-05-21T03:24:38.073Z,97.85
2019-05-21T03:27:06.408Z,98.09
2019-05-21T03:29:34.346Z,97.38
2019-05-21T03:32:02.769Z,97.41
2019-05-21T03:34:30.632Z,97.69
2019-05-21T03:36:59.111Z,97.50
2019-05-21T03:39:28.147Z,97.69
2019-05-21T03:41:56.031Z,97.66
2019-05-21T03:44:25.174Z,97.30
2019-05-21T03:46:53.650Z,97.40
2019-05-21T03:49:22.838Z,97.62
2019-05-21T03:51:53.012Z,97.72
2019-05-21T03:54:21.726Z,97.80
2019-05-21T03:56:50.017Z,97.81
2019-05-21T03:59:18.077Z,97.91
2019-05-21T04:01:46.317Z,98.00
2019-05-21T04:04:14.430Z,98.03
2019-05-21T04:06:52.149Z,98.07
2019-05-21T04:09:14.981Z,97.93
2019-05-21T04:11:43.844Z,98.00
2019-05-21T04:14:14.347Z,97.58
2019-05-21T04:17:04.891Z,97.59
2019-05-21T04:19:35.778Z,97.79
2019-05-21T04:22:03.672Z,97.56
2019-05-21T04:24:32.029Z,97.92
2019-05-21T04:26:59.957Z,97.96
2019-05-21T04:29:28.963Z,97.88
2019-05-21T04:31:57.685Z,98.10
2019-05-21T04:34:26.041Z,98.10
2019-05-21T04:37:09.435Z,98.15
2019-05-21T04:39:24.233Z,98.26
2019-05-21T04:41:52.188Z,97.95
2019-05-21T04:44:20.097Z,97.68
2019-05-21T04:46:48.598Z,97.81
2019-05-21T04:49:16.194Z,97.72
2019-05-21T04:51:44.860Z,97.36
2019-05-21T04:54:13.262Z,97.58
2019-05-21T04:56:41.532Z,97.71
2019-05-21T04:59:10.238Z,97.76
2019-05-21T05:01:38.468Z,97.74
2019-05-21T05:04:06.336Z,97.80
2019-05-21T05:06:34.545Z,97.75
2019-05-21T05:09:03.033Z,97.82
2019-05-21T05:11:46.335Z,97.92
2019-05-21T05:14:13.936Z,97.92
2019-05-21T05:16:42.860Z,97.70
2019-05-21T05:19:11.811Z,97.53
2019-05-21T05:21:39.742Z,97.66
2019-05-21T05:24:18.595Z,97.48
2019-05-21T05:26:46.788Z,97.36
2019-05-21T05:29:15.581Z,97.52
2019-05-21T05:31:43.853Z,97.77
2019-05-21T05:34:12.652Z,97.75
2019-05-21T05:36:40.891Z,97.56
2019-05-21T05:39:10.223Z,97.53
2019-05-21T05:41:44.240Z,97.35
2019-05-21T05:44:14.027Z,97.07
2019-05-21T05:46:43.067Z,97.05
2019-05-21T05:49:17.180Z,97.34
2019-05-21T05:51:45.966Z,97.36
2019-05-21T05:54:14.263Z,97.27
2019-05-21T05:56:42.378Z,97.47
2019-05-21T05:59:14.026Z,97.31
2019-05-21T06:01:41.312Z,97.03
2019-05-21T06:04:10.227Z,97.34
2019-05-21T06:06:38.193Z,97.46
2019-05-21T06:09:09.932Z,97.49
2019-05-21T06:11:38.464Z,97.31
2019-05-21T06:14:07.058Z,97.05
2019-05-21T06:16:35.321Z,97.25
2019-05-21T06:19:03.239Z,97.48
2019-05-21T06:21:31.731Z,97.65
2019-05-21T06:23:59.966Z,97.50
2019-05-21T06:26:28.751Z,97.25
2019-05-21T06:28:57.052Z,97.19
2019-05-21T06:31:25.668Z,97.17
2019-05-21T06:33:53.322Z,97.22
2019-05-21T06:36:21.674Z,97.40
2019-05-21T06:38:50.163Z,96.81
2019-05-21T06:41:18.871Z,96.84
2019-05-21T06:43:46.856Z,97.30
2019-05-21T06:46:14.843Z,96.95
2019-05-21T06:48:43.007Z,97.07
2019-05-21T06:51:11.650Z,96.88
2019-05-21T06:53:40.120Z,96.47
2019-05-21T06:56:08.880Z,96.77
2019-05-21T06:58:37.172Z,97.31
2019-05-21T07:01:06.164Z,97.32
2019-05-21T07:03:34.965Z,96.78
2019-05-21T07:06:02.525Z,96.90
2019-05-21T07:08:34.834Z,96.78
2019-05-21T07:11:01.015Z,96.93
2019-05-21T07:13:31.123Z,96.66
2019-05-21T07:15:59.917Z,96.51
2019-05-21T07:18:32.222Z,96.57
2019-05-21T07:21:04.592Z,96.74
2019-05-21T07:23:33.189Z,97.02
2019-05-21T07:26:01.132Z,96.93
2019-05-21T07:28:29.953Z,97.36
2019-05-21T07:30:58.736Z,97.19
2019-05-21T07:33:27.020Z,96.75
2019-05-21T07:35:54.984Z,97.14
2019-05-21T07:38:22.563Z,96.59
2019-05-21T07:40:53.777Z,96.66
2019-05-21T07:43:24.654Z,96.71
2019-05-21T07:45:52.811Z,96.49
2019-05-21T07:48:21.528Z,96.86
2019-05-21T07:50:54.770Z,96.82
2019-05-21T07:53:23.203Z,96.88
2019-05-21T07:55:53.497Z,96.25
2019-05-21T07:58:21.566Z,96.48
2019-05-21T08:00:50.228Z,96.63
2019-05-21T08:03:17.515Z,96.49
2019-05-21T08:05:45.335Z,96.40
2019-05-21T08:08:15.367Z,96.33
2019-05-21T08:10:43.858Z,96.70
2019-05-21T08:13:15.726Z,96.84
2019-05-21T08:15:45.558Z,96.67
2019-05-21T08:18:13.822Z,96.84
2019-05-21T08:20:41.430Z,96.79
2019-05-21T08:23:09.959Z,96.52
2019-05-21T08:25:40.961Z,96.79
2019-05-21T08:28:08.669Z,96.63
2019-05-21T08:30:37.536Z,96.98
2019-05-21T08:33:05.428Z,97.20
2019-05-21T08:35:33.712Z,97.06
2019-05-21T08:38:01.985Z,97.12
2019-05-21T08:40:29.533Z,97.23
2019-05-21T08:42:58.272Z,96.81
2019-05-21T08:45:27.045Z,96.93
2019-05-21T08:47:55.307Z,96.68
2019-05-21T08:50:26.101Z,96.75
2019-05-21T08:52:54.341Z,96.87
2019-05-21T08:55:22.536Z,96.65
2019-05-21T08:58:06.246Z,97.17
2019-05-21T09:00:21.861Z,96.83
2019-05-21T09:02:50.458Z,96.73
2019-05-21T09:05:19.270Z,96.89
2019-05-21T09:07:52.946Z,96.51
2019-05-21T09:10:18.667Z,96.87
2019-05-21T09:12:46.946Z,96.75
2019-05-21T09:15:16.047Z,96.76
2019-05-21T09:17:44.661Z,97.23
2019-05-21T09:20:13.835Z,97.09
2019-05-21T09:22:41.802Z,96.92
2019-05-21T09:25:10.085Z,96.42
2019-05-21T09:27:37.639Z,96.45
2019-05-21T09:30:06.701Z,96.71
2019-05-21T09:32:34.956Z,96.57
2019-05-21T09:35:02.833Z,96.43
2019-05-21T09:37:31.011Z,96.30
2019-05-21T09:39:59.252Z,96.34
2019-05-21T09:42:27.485Z,96.36
2019-05-21T09:44:56.051Z,96.89
2019-05-21T09:47:24.359Z,96.15
2019-05-21T09:49:53.077Z,96.52
2019-05-21T09:52:21.271Z,96.21
2019-05-21T09:54:49.661Z,96.86
2019-05-21T09:57:23.170Z,96.88
2019-05-21T09:59:59.710Z,96.56
2019-05-21T10:02:29.678Z,96.12
2019-05-21T10:04:57.548Z,96.01
2019-05-21T10:07:39.114Z,96.30
2019-05-21T10:09:56.259Z,96.11
2019-05-21T10:12:24.681Z,96.51
2019-05-21T10:14:52.976Z,96.61
2019-05-21T10:17:20.904Z,96.12
2019-05-21T10:19:48.885Z,96.00
2019-05-21T10:22:17.156Z,95.50
2019-05-21T10:24:46.079Z,95.87
2019-05-21T10:27:14.083Z,96.23
2019-05-21T10:29:42.027Z,96.12
2019-05-21T10:32:10.372Z,96.11
2019-05-21T10:34:41.141Z,96.13
2019-05-21T10:37:09.832Z,96.14
2019-05-21T10:39:38.076Z,95.74
2019-05-21T10:42:06.103Z,96.06
2019-05-21T10:44:34.660Z,96.19
2019-05-21T10:47:03.370Z,96.29
2019-05-21T10:49:32.440Z,96.48
2019-05-21T10:52:00.451Z,96.15
2019-05-21T10:54:28.812Z,96.55
2019-05-21T10:56:57.126Z,96.04
2019-05-21T10:59:25.709Z,96.78
2019-05-21T11:02:16.410Z,96.75
2019-05-21T11:05:01.678Z,97.17
2019-05-21T11:07:30.089Z,96.31
2019-05-21T11:09:58.070Z,96.79
2019-05-21T11:12:26.320Z,97.30
2019-05-21T11:14:54.304Z,97.22
2019-05-21T11:17:22.680Z,96.78
2019-05-21T11:19:51.003Z,96.60
2019-05-21T11:22:19.593Z,96.08
2019-05-21T11:24:47.818Z,96.27
2019-05-21T11:27:16.111Z,95.94
2019-05-21T11:29:44.372Z,96.16
2019-05-21T11:32:11.953Z,96.05
2019-05-21T11:34:40.237Z,96.55
2019-05-21T11:37:08.525Z,96.42
2019-05-21T11:39:36.778Z,96.66
2019-05-21T11:42:05.338Z,96.97
2019-05-21T11:44:33.395Z,97.20
2019-05-21T11:47:02.256Z,97.25
2019-05-21T11:49:30.321Z,97.43
2019-05-21T11:51:58.596Z,97.28
2019-05-21T11:54:26.164Z,97.36
2019-05-21T11:56:54.463Z,97.55
2019-05-21T11:59:24.069Z,97.55
2019-05-21T12:01:52.288Z,97.58
2019-05-21T12:04:20.624Z,97.31
2019-05-21T12:06:49.203Z,97.01
2019-05-21T12:09:17.091Z,97.21
2019-05-21T12:11:45.021Z,97.46
2019-05-21T12:14:13.226Z,97.65
2019-05-21T12:16:41.482Z,97.77
2019-05-21T12:19:09.714Z,97.64
2019-05-21T12:21:38.111Z,97.22
2019-05-21T12:24:06.395Z,97.46
2019-05-21T12:26:34.642Z,98.06
2019-05-21T12:29:02.556Z,98.03
2019-05-21T12:31:31.953Z,97.91
2019-05-21T12:34:00.002Z,97.91
2019-05-21T12:36:28.284Z,97.78
2019-05-21T12:39:11.554Z,97.56
2019-05-21T12:41:27.338Z,97.37
2019-05-21T12:43:55.728Z,97.87
2019-05-21T12:46:23.990Z,97.68
2019-05-21T12:48:52.057Z,97.65
2019-05-21T12:51:20.331Z,97.38
2019-05-21T12:53:49.187Z,97.51
2019-05-21T12:56:17.632Z,97.47
2019-05-21T12:58:46.018Z,97.43
2019-05-21T13:01:14.295Z,97.40
2019-05-21T13:03:42.893Z,97.58
2019-05-21T13:06:10.514Z,97.84
2019-05-21T13:08:38.848Z,97.96
2019-05-21T13:11:07.222Z,98.23
2019-05-21T13:13:35.496Z,97.91
2019-05-21T13:16:03.326Z,97.77
2019-05-21T13:18:30.895Z,97.64
2019-05-21T13:20:58.902Z,97.79
2019-05-21T13:23:27.033Z,97.96
2019-05-21T13:25:55.272Z,98.12
2019-05-21T13:28:23.667Z,97.76
2019-05-21T13:30:52.313Z,97.76
2019-05-21T13:33:20.592Z,97.71
2019-05-21T13:35:49.437Z,97.91
2019-05-21T13:38:17.713Z,97.70
2019-05-21T13:40:47.082Z,97.64
2019-05-21T13:43:15.702Z,98.01
2019-05-21T13:45:43.868Z,97.93
2019-05-21T13:48:12.462Z,98.29
2019-05-21T13:50:40.572Z,97.93
2019-05-21T13:53:09.426Z,97.84
2019-05-21T13:55:37.322Z,97.38
2019-05-21T13:58:04.884Z,97.69
2019-05-21T14:00:38.985Z,97.99
2019-05-21T14:03:07.757Z,98.11
2019-05-21T14:05:36.083Z,97.66
2019-05-21T14:08:04.233Z,97.94
2019-05-21T14:10:32.721Z,97.94
2019-05-21T14:13:00.331Z,97.93
2019-05-21T14:15:29.074Z,98.06
2019-05-21T14:17:57.229Z,98.22
2019-05-21T14:20:26.586Z,98.59
2019-05-21T14:22:54.997Z,98.64
2019-05-21T14:25:23.092Z,98.21
2019-05-21T14:27:51.021Z,98.31
2019-05-21T14:30:18.953Z,98.02
2019-05-21T14:32:47.609Z,97.29
2019-05-21T14:35:15.870Z,96.74
2019-05-21T14:37:43.865Z,97.42
2019-05-21T14:40:28.556Z,97.67
2019-05-21T14:42:58.373Z,97.55
2019-05-21T14:45:14.106Z,98.02
2019-05-21T14:47:41.997Z,97.55
2019-05-21T14:50:09.484Z,97.07
2019-05-21T14:52:37.868Z,97.12
2019-05-21T14:55:06.142Z,97.49
2019-05-21T14:57:34.820Z,97.27
2019-05-21T15:00:04.258Z,97.09
2019-05-21T15:02:32.482Z,97.50
2019-05-21T15:05:00.798Z,97.42
2019-05-21T15:07:29.362Z,97.71
2019-05-21T15:09:57.814Z,97.57
2019-05-21T15:12:26.541Z,97.23
2019-05-21T15:14:55.354Z,97.01
2019-05-21T15:17:23.636Z,97.40
2019-05-21T15:19:54.360Z,96.83
2019-05-21T15:22:21.938Z,96.69
2019-05-21T15:24:49.927Z,97.33
2019-05-21T15:27:17.859Z,97.31
2019-05-21T15:29:46.164Z,96.97
2019-05-21T15:32:14.037Z,96.75
2019-05-21T15:34:41.598Z,97.29
2019-05-21T15:37:10.281Z,97.79
2019-05-21T15:39:38.758Z,97.89
2019-05-21T15:42:08.078Z,97.57
2019-05-21T15:44:36.359Z,97.71
2019-05-21T15:47:04.957Z,97.69
2019-05-21T15:49:36.930Z,97.50
2019-05-21T15:52:04.040Z,97.35
2019-05-21T15:54:31.973Z,97.61
2019-05-21T15:57:00.556Z,97.85
2019-05-21T15:59:29.166Z,97.37
2019-05-21T16:01:57.894Z,97.43
2019-05-21T16:04:26.539Z,97.64
2019-05-21T16:06:54.554Z,97.49
2019-05-21T16:09:23.176Z,97.57
2019-05-21T16:11:51.702Z,97.71
2019-05-21T16:14:20.504Z,97.84
2019-05-21T16:16:48.828Z,97.80
2019-05-21T16:19:17.218Z,97.77
2019-05-21T16:21:45.535Z,97.87
2019-05-21T16:24:14.099Z,98.25
2019-05-21T16:26:42.878Z,98.16
2019-05-21T16:29:11.412Z,97.94
2019-05-21T16:31:40.079Z,98.29
2019-05-21T16:34:08.524Z,98.27
2019-05-21T16:36:36.833Z,97.81
2019-05-21T16:39:06.378Z,97.85
2019-05-21T16:41:44.318Z,97.89
2019-05-21T16:44:04.492Z,98.14
2019-05-21T16:46:32.763Z,98.10
2019-05-21T16:49:00.993Z,97.97
2019-05-21T16:51:29.840Z,98.02
2019-05-21T16:53:58.594Z,98.34
2019-05-21T16:56:27.406Z,98.21
2019-05-21T16:58:55.673Z,98.24
2019-05-21T17:01:24.274Z,98.04
2019-05-21T17:03:59.897Z,98.27
2019-05-21T17:06:22.528Z,98.47
2019-05-21T17:08:51.171Z,98.25
2019-05-21T17:11:19.538Z,98.42
2019-05-21T17:13:47.921Z,98.02
2019-05-21T17:16:16.284Z,97.79
2019-05-21T17:18:44.564Z,97.84
2019-05-21T17:21:12.886Z,98.10
2019-05-21T17:23:41.703Z,98.45
2019-05-21T17:26:10.233Z,98.55
2019-05-21T17:28:38.790Z,98.39
2019-05-21T17:31:08.798Z,98.39
2019-05-21T17:33:37.394Z,98.47
2019-05-21T17:36:06.154Z,98.31
2019-05-21T17:38:34.985Z,98.25
2019-05-21T17:41:03.350Z,98.62
2019-05-21T17:43:31.971Z,98.71
2019-05-21T17:46:00.366Z,98.75
2019-05-21T17:48:29.261Z,99.00
2019-05-21T17:50:57.785Z,98.99
2019-05-21T17:53:26.572Z,98.88
2019-05-21T17:55:55.239Z,99.11
2019-05-21T17:58:23.965Z,99.02
2019-05-21T18:00:56.105Z,98.97
2019-05-21T18:03:24.323Z,98.89
2019-05-21T18:05:54.533Z,98.66
2019-05-21T18:08:23.116Z,98.58
2019-05-21T18:10:51.984Z,98.33
2019-05-21T18:13:21.048Z,98.04
2019-05-21T18:15:49.775Z,98.25
2019-05-21T18:18:18.708Z,98.59
2019-05-21T18:20:47.111Z,98.70
2019-05-21T18:23:15.306Z,98.81
2019-05-21T18:25:43.723Z,98.86
2019-05-21T18:28:11.473Z,98.90
2019-05-21T18:30:39.613Z,98.84
2019-05-21T18:33:08.090Z,98.99
2019-05-21T18:35:36.365Z,99.01
2019-05-21T18:38:04.880Z,99.04
2019-05-21T18:40:33.670Z,99.16
2019-05-21T18:43:02.534Z,99.09
2019-05-21T18:45:31.174Z,99.13
2019-05-21T18:48:00.984Z,98.95
2019-05-21T18:50:36.402Z,98.81
2019-05-21T18:52:59.527Z,98.79
2019-05-21T18:55:27.494Z,98.95
2019-05-21T18:57:55.938Z,98.97
2019-05-21T19:00:25.178Z,98.99
2019-05-21T19:02:53.986Z,99.15
2019-05-21T19:05:23.214Z,99.25
2019-05-21T19:07:51.988Z,99.03
2019-05-21T19:10:22.514Z,98.77
2019-05-21T19:12:51.342Z,98.81
2019-05-21T19:15:20.058Z,98.68
2019-05-21T19:17:48.857Z,99.04
2019-05-21T19:20:18.728Z,99.05
2019-05-21T19:22:48.575Z,99.14
2019-05-21T19:25:17.367Z,99.13
2019-05-21T19:27:45.947Z,99.08
2019-05-21T19:30:14.611Z,99.21
2019-05-21T19:32:42.741Z,99.38
2019-05-21T19:35:11.611Z,99.11
2019-05-21T19:37:40.304Z,99.18
2019-05-21T19:40:08.993Z,99.39
2019-05-21T19:42:53.948Z,99.21
2019-05-21T19:45:10.744Z,99.01
2019-05-21T19:47:39.378Z,98.82
2019-05-21T19:50:07.862Z,98.83
2019-05-21T19:52:36.247Z,98.72
2019-05-21T19:55:04.038Z,98.83
2019-05-21T19:57:33.073Z,99.02
2019-05-21T20:00:01.113Z,98.95
2019-05-21T20:02:29.787Z,98.73
2019-05-21T20:04:58.523Z,98.78
2019-05-21T20:07:27.448Z,98.61
2019-05-21T20:09:55.555Z,98.58
2019-05-21T20:12:25.890Z,98.55
2019-05-21T20:14:54.464Z,98.63
2019-05-21T20:17:23.747Z,98.99
2019-05-21T20:19:52.765Z,98.89
2019-05-21T20:22:21.113Z,98.46
2019-05-21T20:24:49.133Z,98.52
2019-05-21T20:27:17.459Z,98.71
2019-05-21T20:29:45.865Z,99.16
2019-05-21T20:32:15.937Z,99.34
2019-05-21T20:34:44.848Z,99.25
2019-05-21T20:37:16.055Z,99.05
2019-05-21T20:39:44.613Z,99.06
2019-05-21T20:42:17.757Z,99.36
2019-05-21T20:44:46.488Z,99.60
2019-05-21T20:47:15.613Z,99.56
2019-05-21T20:49:45.449Z,99.43
2019-05-21T20:52:18.697Z,99.10
2019-05-21T20:54:46.734Z,99.08
2019-05-21T20:57:15.691Z,99.40
2019-05-21T20:59:44.429Z,99.65
2019-05-21T21:02:14.377Z,99.77
2019-05-21T21:04:43.083Z,99.99
2019-05-21T21:07:11.889Z,99.64
2019-05-21T21:09:40.305Z,99.55
2019-05-21T21:12:11.335Z,99.80
2019-05-21T21:14:40.494Z,99.98
2019-05-21T21:17:11.096Z,100.00
2019-05-21T21:19:40.274Z,99.86
2019-05-21T21:22:08.304Z,99.63
2019-05-21T21:24:37.783Z,99.52
2019-05-21T21:27:06.909Z,99.43
2019-05-21T21:29:35.700Z,99.03
2019-05-21T21:32:04.436Z,98.82
2019-05-21T21:34:33.458Z,98.90
2019-05-21T21:37:02.283Z,98.96
2019-05-21T21:39:30.693Z,98.90
2019-05-21T21:42:00.355Z,98.87
2019-05-21T21:44:34.063Z,99.28
2019-05-21T21:47:01.455Z,99.55
2019-05-21T21:49:30.154Z,99.34
2019-05-21T21:51:59.410Z,99.07
2019-05-21T21:54:28.384Z,99.06
2019-05-21T21:56:57.218Z,99.22
2019-05-21T21:59:25.090Z,99.36
2019-05-21T22:01:55.159Z,99.27
2019-05-21T22:04:29.928Z,99.16
2019-05-21T22:06:58.074Z,99.33
2019-05-21T22:09:34.480Z,99.30
2019-05-21T22:12:05.120Z,99.47
2019-05-21T22:14:49.186Z,99.87
2019-05-21T22:17:04.932Z,100.00
2019-05-21T22:19:33.502Z,100.00
2019-05-21T22:22:01.641Z,100.00
2019-05-21T22:24:29.977Z,100.00
2019-05-21T22:26:58.907Z,100.00
2019-05-21T22:29:27.276Z,100.00
2019-05-21T22:31:56.098Z,100.00
2019-05-21T22:34:25.335Z,100.00
2019-05-21T22:36:53.680Z,100.00
2019-05-21T22:39:26.523Z,100.00
2019-05-21T22:41:57.412Z,100.00
2019-05-21T22:44:25.373Z,100.00
2019-05-21T22:46:54.117Z,100.00
2019-05-21T22:49:22.247Z,100.00
2019-05-21T22:51:50.843Z,100.00
2019-05-21T22:54:18.813Z,100.00
2019-05-21T22:56:47.196Z,100.00
2019-05-21T22:59:15.838Z,100.00
2019-05-21T23:01:46.229Z,100.00
2019-05-21T23:04:15.274Z,100.00
2019-05-21T23:06:43.596Z,100.00
2019-05-21T23:09:12.085Z,100.00
2019-05-21T23:11:42.438Z,100.00
2019-05-21T23:14:10.522Z,100.00
2019-05-21T23:16:38.974Z,100.00
2019-05-21T23:19:11.362Z,100.00
2019-05-21T23:21:40.049Z,99.96
2019-05-21T23:24:12.717Z,99.81
2019-05-21T23:26:41.112Z,99.74
2019-05-21T23:29:09.829Z,99.86
2019-05-21T23:31:37.834Z,99.73
2019-05-21T23:34:06.202Z,99.80
2019-05-21T23:36:34.424Z,99.66
2019-05-21T23:39:08.679Z,99.77
2019-05-21T23:41:36.996Z,99.74
2019-05-21T23:44:06.161Z,99.51
2019-05-21T23:46:34.853Z,99.61
2019-05-21T23:49:02.750Z,99.69
2019-05-21T23:51:31.087Z,99.64
2019-05-21T23:54:00.209Z,99.60
2019-05-21T23:56:29.005Z,99.67
2019-05-21T23:58:57.612Z,99.85
